Time;durP1;ratioP1;P1;durP2;ratioP2;P2;SDS_P1;SDS_P2;PMS_P1;PMS_P2;Temp;Humidity;BMP_temperature;BMP_pressure;BME280_temperature;BME280_humidity;BME280_pressure;Samples;Min_cycle;Max_cycle;Signal;HPM_P1;HPM_P2
2023/04/15 00:00:28;;;;;;;0.65;0.65;;;8.90;99.90;;;;;;4996151;28;20583;-81
2023/04/15 00:02:54;;;;;;;0.97;0.50;;;8.90;99.90;;;;;;5010837;28;20114;-79
2023/04/15 00:05:20;;;;;;;0.20;0.20;;;9.00;99.90;;;;;;5003620;28;20157;-81
2023/04/15 00:07:46;;;;;;;4.10;1.70;;;8.80;99.90;;;;;;5002578;28;20092;-80
2023/04/15 00:10:13;;;;;;;2.17;1.75;;;8.80;99.90;;;;;;5002461;28;20041;-80
2023/04/15 00:12:40;;;;;;;1.08;1.02;;;8.90;99.90;;;;;;4991576;28;20029;-80
2023/04/15 00:15:08;;;;;;;0.10;0.10;;;8.90;99.90;;;;;;5000824;28;20095;-80
2023/04/15 00:17:34;;;;;;;0.10;0.10;;;9.00;99.90;;;;;;4997662;28;20061;-80
2023/04/15 00:19:59;;;;;;;0.93;0.93;;;8.90;99.90;;;;;;4994186;28;20037;-79
2023/04/15 00:22:26;;;;;;;0.00;0.00;;;8.70;99.90;;;;;;5002320;28;20029;-79
2023/04/15 00:24:55;;;;;;;0.10;0.10;;;8.70;99.90;;;;;;5002579;28;20064;-79
2023/04/15 00:27:21;;;;;;;0.43;0.43;;;8.70;99.90;;;;;;5002536;28;20529;-79
2023/04/15 00:29:47;;;;;;;1.55;0.98;;;8.70;99.90;;;;;;5000825;28;20033;-80
2023/04/15 00:32:13;;;;;;;0.95;0.95;;;8.70;99.90;;;;;;4996139;28;20034;-79
2023/04/15 00:34:38;;;;;;;0.47;0.47;;;8.60;99.90;;;;;;5003241;28;20033;-79
2023/04/15 00:37:04;;;;;;;1.42;0.65;;;8.50;99.90;;;;;;5002726;28;20033;-81
2023/04/15 00:39:30;;;;;;;0.45;0.45;;;8.50;99.90;;;;;;5002351;28;20034;-79
2023/04/15 00:41:56;;;;;;;12.95;1.58;;;8.50;99.90;;;;;;5002773;28;20072;-79
2023/04/15 00:44:22;;;;;;;0.30;0.22;;;8.50;99.90;;;;;;5002519;28;20493;-79
2023/04/15 00:46:50;;;;;;;0.80;0.80;;;8.50;99.90;;;;;;4998207;28;20080;-78
2023/04/15 00:49:17;;;;;;;0.10;0.10;;;8.50;99.90;;;;;;5001178;28;20610;-79
2023/04/15 00:51:43;;;;;;;0.28;0.28;;;8.50;99.90;;;;;;5002344;28;20025;-80
2023/04/15 00:54:10;;;;;;;1.25;0.47;;;8.50;99.90;;;;;;5000934;28;20784;-80
2023/04/15 00:56:37;;;;;;;0.10;0.10;;;8.50;99.90;;;;;;5000105;28;20034;-79
2023/04/15 00:59:07;;;;;;;0.10;0.10;;;8.50;99.90;;;;;;5002163;28;20022;-79
2023/04/15 01:01:35;;;;;;;0.17;0.17;;;8.50;99.90;;;;;;4997414;28;20023;-78
2023/04/15 01:04:01;;;;;;;0.65;0.65;;;8.40;99.90;;;;;;5002109;28;20044;-80
2023/04/15 01:06:28;;;;;;;0.57;0.55;;;8.40;99.90;;;;;;4988458;28;20053;-79
2023/04/15 01:08:54;;;;;;;0.10;0.10;;;8.40;99.90;;;;;;4995719;28;20061;-79
2023/04/15 01:11:20;;;;;;;0.10;0.10;;;8.40;99.90;;;;;;5001049;28;20157;-79
2023/04/15 01:13:47;;;;;;;0.20;0.20;;;8.30;99.90;;;;;;4993113;28;20448;-80
2023/04/15 01:16:13;;;;;;;0.43;0.43;;;8.20;99.90;;;;;;4987989;28;20735;-79
2023/04/15 01:18:39;;;;;;;0.50;0.50;;;8.20;99.90;;;;;;4994534;28;20030;-80
2023/04/15 01:21:06;;;;;;;3.65;2.75;;;8.10;99.90;;;;;;4993266;28;20033;-79
2023/04/15 01:23:32;;;;;;;;;;;8.10;99.90;;;;;;5001893;28;20029;-79
2023/04/15 01:25:58;;;;;;;0.10;0.10;;;8.10;99.90;;;;;;5001220;28;19920;-80
2023/04/15 01:28:24;;;;;;;0.10;0.10;;;8.10;99.90;;;;;;5001787;28;20026;-81
2023/04/15 01:31:04;;;;;;;0.20;0.20;;;8.30;99.90;;;;;;5001194;28;20034;-80
2023/04/15 01:33:30;;;;;;;0.10;0.10;;;8.30;99.90;;;;;;4997029;28;20485;-79
2023/04/15 01:35:56;;;;;;;0.32;0.32;;;8.20;99.90;;;;;;5002960;28;20026;-79
2023/04/15 01:38:22;;;;;;;0.10;0.10;;;8.20;99.90;;;;;;4997944;28;20508;-79
2023/04/15 01:40:47;;;;;;;4.35;1.15;;;8.00;99.90;;;;;;5003643;28;20038;-80
2023/04/15 01:43:14;;;;;;;0.90;0.68;;;8.00;99.90;;;;;;4999218;28;20060;-79
2023/04/15 01:45:40;;;;;;;0.10;0.10;;;8.00;99.90;;;;;;5000846;28;20088;-80
2023/04/15 01:48:06;;;;;;;0.10;0.10;;;7.90;99.90;;;;;;5001464;28;20026;-79
2023/04/15 01:50:32;;;;;;;0.10;0.10;;;7.90;99.90;;;;;;5000279;28;20467;-79
2023/04/15 01:52:58;;;;;;;0.10;0.10;;;7.80;99.90;;;;;;5002115;28;20030;-79
2023/04/15 01:55:24;;;;;;;0.10;0.10;;;7.90;99.90;;;;;;5004717;28;20048;-79
2023/04/15 01:57:49;;;;;;;0.10;0.10;;;7.90;99.90;;;;;;5004133;28;20054;-80
2023/04/15 02:00:16;;;;;;;0.10;0.10;;;7.80;99.90;;;;;;5008244;28;20420;-80
2023/04/15 02:02:42;;;;;;;3.30;0.73;;;7.80;99.90;;;;;;5003140;28;20026;-81
2023/04/15 02:05:08;;;;;;;0.10;0.10;;;7.60;99.90;;;;;;5003466;28;20030;-80
2023/04/15 02:07:34;;;;;;;0.10;0.10;;;7.60;99.90;;;;;;4995086;28;20026;-80
2023/04/15 02:10:00;;;;;;;0.20;0.20;;;7.50;99.90;;;;;;4995085;28;20030;-80
2023/04/15 02:12:26;;;;;;;0.82;0.82;;;7.50;99.90;;;;;;4995605;28;20549;-80
2023/04/15 02:14:52;;;;;;;3.72;1.45;;;7.50;99.90;;;;;;4995968;28;20140;-80
2023/04/15 02:17:17;;;;;;;0.10;0.10;;;7.60;99.90;;;;;;4994836;28;20030;-82
2023/04/15 02:19:43;;;;;;;0.10;0.10;;;7.70;99.90;;;;;;5003881;28;20096;-80
2023/04/15 02:22:12;;;;;;;0.10;0.10;;;7.70;99.90;;;;;;4996843;28;20114;-80
2023/04/15 02:24:38;;;;;;;0.52;0.52;;;7.70;99.90;;;;;;5002651;28;20030;-80
2023/04/15 02:27:03;;;;;;;0.10;0.10;;;7.80;99.90;;;;;;4997665;28;20092;-81
2023/04/15 02:29:31;;;;;;;15.43;0.52;;;7.90;99.90;;;;;;5005427;28;20040;-81
2023/04/15 02:31:57;;;;;;;0.63;0.63;;;7.80;99.90;;;;;;4994147;28;20821;-79
2023/04/15 02:34:22;;;;;;;0.10;0.10;;;7.90;99.90;;;;;;5003788;28;20022;-80
2023/04/15 02:36:48;;;;;;;0.10;0.10;;;7.80;99.90;;;;;;5004806;28;20032;-79
2023/04/15 02:39:15;;;;;;;0.20;0.20;;;7.80;99.90;;;;;;4997867;28;20030;-82
2023/04/15 02:41:42;;;;;;;0.10;0.10;;;7.90;99.90;;;;;;4999449;28;20021;-80
2023/04/15 02:44:08;;;;;;;0.22;0.13;;;7.90;99.90;;;;;;4998989;28;20026;-80
2023/04/15 02:46:35;;;;;;;0.10;0.10;;;7.90;99.90;;;;;;5004531;28;20108;-81
2023/04/15 02:49:02;;;;;;;0.25;0.25;;;7.90;99.90;;;;;;5000180;28;20049;-81
2023/04/15 02:51:32;;;;;;;0.10;0.10;;;7.80;99.90;;;;;;4994409;28;20088;-82
2023/04/15 02:53:58;;;;;;;0.10;0.10;;;7.70;99.90;;;;;;4996678;28;20030;-82
2023/04/15 02:56:24;;;;;;;0.30;0.30;;;7.60;99.90;;;;;;4992821;28;20029;-79
2023/04/15 02:58:50;;;;;;;0.25;0.25;;;7.60;99.90;;;;;;4994008;28;20037;-80
2023/04/15 03:01:15;;;;;;;1.65;1.55;;;7.60;99.90;;;;;;4993698;28;20034;-81
2023/04/15 03:03:41;;;;;;;0.10;0.10;;;7.60;99.90;;;;;;5007655;28;20032;-79
2023/04/15 03:06:07;;;;;;;0.10;0.10;;;7.60;99.90;;;;;;4995092;28;20544;-82
2023/04/15 03:08:33;;;;;;;0.10;0.10;;;7.80;99.90;;;;;;4995987;28;20026;-79
2023/04/15 03:11:01;;;;;;;0.10;0.10;;;7.70;99.90;;;;;;4999771;28;21020;-80
2023/04/15 03:13:27;;;;;;;0.28;0.28;;;7.80;99.90;;;;;;4988097;28;20570;-78
2023/04/15 03:15:52;;;;;;;0.10;0.10;;;7.70;99.90;;;;;;4996055;28;20474;-79
2023/04/15 03:18:18;;;;;;;0.35;0.35;;;7.80;99.90;;;;;;4996444;28;20121;-80
2023/04/15 03:20:44;;;;;;;0.10;0.10;;;7.90;99.90;;;;;;4995080;28;20038;-79
2023/04/15 03:23:09;;;;;;;0.15;0.15;;;7.80;99.90;;;;;;4994610;28;20038;-80
2023/04/15 03:25:36;;;;;;;0.10;0.10;;;7.90;99.90;;;;;;4995458;28;20076;-80
2023/04/15 03:28:02;;;;;;;0.65;0.65;;;7.90;99.90;;;;;;4999395;28;20144;-78
2023/04/15 03:30:28;;;;;;;0.10;0.10;;;7.90;99.90;;;;;;5000796;28;20037;-80
2023/04/15 03:32:53;;;;;;;0.20;0.20;;;7.90;99.90;;;;;;5001646;28;20572;-80
2023/04/15 03:35:19;;;;;;;0.10;0.10;;;7.90;99.90;;;;;;4997119;28;20465;-81
2023/04/15 03:37:45;;;;;;;0.10;0.10;;;8.00;99.90;;;;;;5001495;28;20569;-81
2023/04/15 03:40:11;;;;;;;0.20;0.20;;;8.00;99.90;;;;;;5003836;28;20112;-80
2023/04/15 03:42:37;;;;;;;0.10;0.10;;;8.00;99.90;;;;;;5004161;28;20021;-80
2023/04/15 03:45:03;;;;;;;3.78;0.65;;;8.00;99.90;;;;;;5019165;28;20030;-81
2023/04/15 03:47:28;;;;;;;0.10;0.10;;;8.00;99.90;;;;;;5003792;28;20037;-78
2023/04/15 03:49:54;;;;;;;0.10;0.10;;;7.90;99.90;;;;;;5003631;28;20125;-79
2023/04/15 03:52:20;;;;;;;0.10;0.10;;;7.90;99.90;;;;;;5004037;28;20029;-81
2023/04/15 03:54:46;;;;;;;0.20;0.20;;;7.90;99.90;;;;;;5003208;28;20025;-78
2023/04/15 03:57:12;;;;;;;0.10;0.10;;;7.90;99.90;;;;;;5002193;28;20049;-78
2023/04/15 03:59:37;;;;;;;0.10;0.10;;;7.90;99.90;;;;;;4994338;28;20026;-79
2023/04/15 04:02:03;;;;;;;0.10;0.10;;;7.80;99.90;;;;;;5003861;28;20030;-78
2023/04/15 04:04:29;;;;;;;5.38;1.55;;;7.90;99.90;;;;;;5002644;28;20788;-80
2023/04/15 04:06:54;;;;;;;0.10;0.10;;;7.90;99.90;;;;;;4994037;28;20030;-82
2023/04/15 04:09:20;;;;;;;0.10;0.10;;;7.90;99.90;;;;;;5002315;28;20091;-78
2023/04/15 04:11:46;;;;;;;0.20;0.20;;;7.90;99.90;;;;;;4994052;28;20056;-78
2023/04/15 04:14:11;;;;;;;0.10;0.10;;;7.90;99.90;;;;;;5003014;28;20032;-80
2023/04/15 04:16:37;;;;;;;0.10;0.10;;;7.90;99.90;;;;;;5002227;28;20068;-78
2023/04/15 04:19:02;;;;;;;0.10;0.10;;;7.90;99.90;;;;;;5001177;28;20397;-80
2023/04/15 04:21:28;;;;;;;0.38;0.38;;;7.90;99.90;;;;;;4996939;28;20033;-79
2023/04/15 04:23:55;;;;;;;0.15;0.15;;;7.90;99.90;;;;;;5000321;28;20556;-79
2023/04/15 04:26:21;;;;;;;0.10;0.10;;;8.00;99.90;;;;;;5001417;28;20041;-81
2023/04/15 04:28:47;;;;;;;0.20;0.20;;;7.90;99.90;;;;;;5002459;28;20088;-82
2023/04/15 04:31:13;;;;;;;0.10;0.10;;;7.90;99.90;;;;;;4994144;28;21127;-80
2023/04/15 04:33:39;;;;;;;1.08;0.90;;;7.80;99.90;;;;;;5002337;28;20056;-80
2023/04/15 04:36:05;;;;;;;0.10;0.10;;;7.80;99.90;;;;;;4994652;28;20121;-81
2023/04/15 04:38:30;;;;;;;0.10;0.10;;;7.70;99.90;;;;;;5002316;28;20033;-81
2023/04/15 04:40:56;;;;;;;0.40;0.40;;;7.70;99.90;;;;;;5001703;28;20026;-81
2023/04/15 04:43:22;;;;;;;0.25;0.25;;;7.80;99.90;;;;;;5000309;28;20037;-81
2023/04/15 04:45:47;;;;;;;0.50;0.50;;;7.70;99.90;;;;;;4996102;28;20053;-82
2023/04/15 04:48:13;;;;;;;0.10;0.10;;;7.70;99.90;;;;;;4993814;28;20481;-79
2023/04/15 04:50:39;;;;;;;0.10;0.10;;;7.60;99.90;;;;;;4995933;28;20029;-79
2023/04/15 04:53:04;;;;;;;0.28;0.28;;;7.60;99.90;;;;;;4995019;28;20588;-80
2023/04/15 04:55:30;;;;;;;0.10;0.10;;;7.50;99.90;;;;;;5001373;28;20026;-79
2023/04/15 04:57:56;;;;;;;2.50;1.13;;;7.60;99.90;;;;;;5001642;28;20136;-79
2023/04/15 05:00:22;;;;;;;0.15;0.15;;;7.60;99.90;;;;;;5001929;28;20045;-83
2023/04/15 05:02:47;;;;;;;0.10;0.10;;;7.70;99.90;;;;;;5000354;28;20727;-81
2023/04/15 05:05:13;;;;;;;0.45;0.45;;;7.80;99.90;;;;;;4995699;28;20027;-80
2023/04/15 05:07:39;;;;;;;0.10;0.10;;;7.80;99.90;;;;;;4996147;28;20041;-80
2023/04/15 05:10:06;;;;;;;0.10;0.10;;;7.80;99.90;;;;;;4992459;28;20033;-79
2023/04/15 05:12:31;;;;;;;0.35;0.35;;;7.90;99.90;;;;;;4998210;28;20039;-79
2023/04/15 05:14:57;;;;;;;0.20;0.20;;;7.80;99.90;;;;;;5001646;28;20033;-79
2023/04/15 05:17:23;;;;;;;0.45;0.45;;;7.90;99.90;;;;;;4995143;28;20061;-82
2023/04/15 05:19:48;;;;;;;0.20;0.20;;;7.90;99.90;;;;;;4996893;28;20100;-80
2023/04/15 05:22:14;;;;;;;0.30;0.30;;;7.90;99.90;;;;;;4992506;28;20104;-79
2023/04/15 05:24:40;;;;;;;0.43;0.43;;;7.90;99.90;;;;;;4996183;28;20030;-80
2023/04/15 05:27:07;;;;;;;0.17;0.17;;;8.00;99.90;;;;;;5001276;28;20034;-80
2023/04/15 05:29:33;;;;;;;;;;;8.00;99.90;;;;;;5002714;28;20032;-80
2023/04/15 05:31:58;;;;;;;0.20;0.20;;;8.00;99.90;;;;;;5001493;28;19921;-79
2023/04/15 05:34:24;;;;;;;0.10;0.10;;;8.00;99.90;;;;;;5001930;28;20052;-79
2023/04/15 05:36:50;;;;;;;0.57;0.57;;;8.10;99.90;;;;;;4992555;28;20037;-79
2023/04/15 05:39:15;;;;;;;0.10;0.10;;;8.00;99.90;;;;;;5001775;28;20069;-78
2023/04/15 05:41:41;;;;;;;0.10;0.10;;;8.00;99.90;;;;;;5001509;28;20120;-80
2023/04/15 05:44:07;;;;;;;0.10;0.10;;;8.00;99.90;;;;;;5001614;28;20029;-80
2023/04/15 05:46:32;;;;;;;0.10;0.10;;;8.00;99.90;;;;;;4998672;28;20034;-82
2023/04/15 05:48:58;;;;;;;0.30;0.30;;;8.00;99.90;;;;;;4995209;28;20090;-80
2023/04/15 05:51:24;;;;;;;0.10;0.10;;;8.00;99.90;;;;;;4999228;28;20033;-77
2023/04/15 05:53:50;;;;;;;0.10;0.10;;;8.00;99.90;;;;;;4986008;28;20041;-79
2023/04/15 05:56:16;;;;;;;0.10;0.10;;;8.00;99.90;;;;;;4997990;28;20023;-78
2023/04/15 05:58:41;;;;;;;0.10;0.10;;;8.10;99.90;;;;;;4995443;28;20054;-77
2023/04/15 06:01:07;;;;;;;0.43;0.43;;;8.10;99.90;;;;;;4994628;28;20030;-78
2023/04/15 06:03:33;;;;;;;0.10;0.10;;;8.00;99.90;;;;;;4999851;28;20069;-79
2023/04/15 06:05:59;;;;;;;0.45;0.45;;;8.10;99.90;;;;;;4998807;28;20030;-80
2023/04/15 06:08:25;;;;;;;0.68;0.45;;;8.10;99.90;;;;;;4999025;28;20092;-80
2023/04/15 06:10:51;;;;;;;0.10;0.10;;;8.10;99.90;;;;;;4997853;28;20042;-81
2023/04/15 06:13:16;;;;;;;0.13;0.13;;;8.30;99.90;;;;;;4998417;28;20034;-79
2023/04/15 06:15:42;;;;;;;0.10;0.10;;;8.40;99.90;;;;;;4990565;28;20030;-80
2023/04/15 06:18:08;;;;;;;1.55;1.02;;;8.40;99.90;;;;;;4996683;28;20041;-80
2023/04/15 06:20:33;;;;;;;0.10;0.10;;;8.40;99.90;;;;;;4995329;28;20037;-81
2023/04/15 06:22:59;;;;;;;0.10;0.10;;;8.60;99.90;;;;;;4995663;28;20061;-80
2023/04/15 06:25:25;;;;;;;1.15;1.05;;;8.70;99.90;;;;;;4998603;28;20061;-80
2023/04/15 06:27:50;;;;;;;0.10;0.10;;;8.60;99.90;;;;;;4998738;28;20029;-79
2023/04/15 06:30:16;;;;;;;12.05;0.88;;;8.60;99.90;;;;;;4999072;28;20120;-79
2023/04/15 06:32:42;;;;;;;0.10;0.10;;;8.70;99.90;;;;;;4996490;28;20037;-80
2023/04/15 06:35:08;;;;;;;0.13;0.13;;;8.60;99.90;;;;;;4989840;28;20037;-82
2023/04/15 06:37:33;;;;;;;0.70;0.70;;;8.60;99.90;;;;;;4997428;28;20030;-79
2023/04/15 06:39:59;;;;;;;0.38;0.38;;;8.70;99.90;;;;;;4999717;28;20034;-80
2023/04/15 06:42:25;;;;;;;0.20;0.20;;;8.70;99.90;;;;;;4997768;28;20030;-83
2023/04/15 06:44:50;;;;;;;0.13;0.13;;;8.60;99.90;;;;;;5005337;28;20575;-83
2023/04/15 06:47:16;;;;;;;4.65;1.50;;;8.50;99.90;;;;;;5000079;28;20036;-82
2023/04/15 06:49:42;;;;;;;2.92;1.20;;;8.70;99.90;;;;;;5001534;28;20077;-82
2023/04/15 06:52:09;;;;;;;0.10;0.10;;;8.80;99.90;;;;;;5001598;28;20088;-81
2023/04/15 06:54:35;;;;;;;0.30;0.30;;;8.60;99.90;;;;;;5004454;28;20034;-81
2023/04/15 06:57:00;;;;;;;0.13;0.13;;;8.60;99.90;;;;;;5001769;28;20100;-83
2023/04/15 06:59:26;;;;;;;0.10;0.10;;;8.80;99.90;;;;;;4999190;28;20034;-79
2023/04/15 07:01:52;;;;;;;1.45;0.85;;;8.90;99.90;;;;;;4998996;28;20033;-80
2023/04/15 07:04:18;;;;;;;0.10;0.10;;;9.00;99.90;;;;;;5004600;28;20065;-82
2023/04/15 07:06:43;;;;;;;0.20;0.20;;;8.90;99.90;;;;;;5000735;28;20026;-78
2023/04/15 07:09:09;;;;;;;0.08;0.08;;;8.80;99.90;;;;;;5004994;28;20022;-81
2023/04/15 07:11:35;;;;;;;0.00;0.00;;;9.20;99.90;;;;;;5005132;28;20042;-80
2023/04/15 07:14:01;;;;;;;0.20;0.20;;;9.50;99.90;;;;;;5005996;28;20072;-80
2023/04/15 07:16:26;;;;;;;0.10;0.10;;;9.10;99.90;;;;;;5011371;28;20354;-84
2023/04/15 07:18:52;;;;;;;0.30;0.30;;;8.90;99.90;;;;;;5012117;28;20037;-79
2023/04/15 07:21:18;;;;;;;0.10;0.10;;;8.90;99.90;;;;;;5007334;28;20108;-82
2023/04/15 07:23:44;;;;;;;0.10;0.10;;;9.40;99.90;;;;;;5011518;28;20573;-83
2023/04/15 07:26:10;;;;;;;0.20;0.20;;;9.80;99.90;;;;;;5006575;28;20026;-82
2023/04/15 07:28:35;;;;;;;0.38;0.38;;;10.20;99.90;;;;;;5012939;28;20609;-81
2023/04/15 07:31:01;;;;;;;0.47;0.47;;;10.20;99.90;;;;;;5011052;28;20383;-82
2023/04/15 07:33:27;;;;;;;0.00;0.00;;;13.30;99.90;;;;;;5011015;28;20030;-85
2023/04/15 07:35:52;;;;;;;0.00;0.00;;;16.10;96.80;;;;;;5012686;28;20034;-81
2023/04/15 07:38:18;;;;;;;0.00;0.00;;;14.00;98.20;;;;;;5012438;28;20061;-81
2023/04/15 07:40:45;;;;;;;0.00;0.00;;;12.80;99.20;;;;;;5012288;28;20069;-81
2023/04/15 07:43:12;;;;;;;0.00;0.00;;;11.80;99.90;;;;;;5027081;28;20379;-82
2023/04/15 07:45:38;;;;;;;0.10;0.10;;;14.60;98.00;;;;;;5011918;28;20033;-84
2023/04/15 07:48:04;;;;;;;0.10;0.10;;;16.00;91.20;;;;;;5012538;28;20034;-81
2023/04/15 07:50:30;;;;;;;0.30;0.30;;;13.40;95.00;;;;;;5011701;28;20497;-82
2023/04/15 07:52:56;;;;;;;2.23;0.57;;;13.30;97.20;;;;;;5011089;28;20037;-81
2023/04/15 07:55:22;;;;;;;0.00;0.00;;;15.70;91.10;;;;;;5008750;28;20140;-81
2023/04/15 07:57:48;;;;;;;0.00;0.00;;;14.20;93.10;;;;;;5008835;28;20046;-81
2023/04/15 08:00:15;;;;;;;0.25;0.20;;;17.40;90.40;;;;;;5009154;28;20269;-84
2023/04/15 08:02:45;;;;;;;0.52;0.52;;;15.70;84.40;;;;;;5002948;28;20033;-80
2023/04/15 08:05:12;;;;;;;0.00;0.00;;;17.30;84.60;;;;;;5004851;28;20030;-82
2023/04/15 08:07:38;;;;;;;0.00;0.00;;;14.50;86.90;;;;;;5019777;28;20034;-85
2023/04/15 08:10:05;;;;;;;0.10;0.10;;;17.30;78.70;;;;;;5005800;28;20452;-81
2023/04/15 08:12:30;;;;;;;0.00;0.00;;;15.80;84.70;;;;;;5006051;28;21233;-83
2023/04/15 08:14:56;;;;;;;0.00;0.00;;;17.70;79.80;;;;;;5004510;28;20026;-83
2023/04/15 08:17:22;;;;;;;0.00;0.00;;;21.60;70.40;;;;;;5002717;28;20025;-84
2023/04/15 08:19:48;;;;;;;0.00;0.00;;;16.80;76.30;;;;;;5004096;28;20045;-81
2023/04/15 08:22:14;;;;;;;0.00;0.00;;;16.50;79.50;;;;;;4996862;28;20486;-82
2023/04/15 08:24:40;;;;;;;1.10;0.63;;;18.10;79.60;;;;;;4999336;28;20110;-81
2023/04/15 08:27:06;;;;;;;0.00;0.00;;;19.10;74.10;;;;;;5001971;28;20026;-81
2023/04/15 08:29:32;;;;;;;0.00;0.00;;;19.10;71.30;;;;;;5000713;28;20374;-78
2023/04/15 08:32:00;;;;;;;0.00;0.00;;;14.80;80.70;;;;;;4989591;28;20049;-79
2023/04/15 08:34:26;;;;;;;0.20;0.20;;;13.60;86.90;;;;;;5002313;28;20026;-80
2023/04/15 08:36:51;;;;;;;0.00;0.00;;;13.60;84.30;;;;;;4991808;28;20026;-80
2023/04/15 08:39:17;;;;;;;0.40;0.40;;;13.70;85.60;;;;;;4993540;28;20026;-80
2023/04/15 08:41:51;;;;;;;0.00;0.00;;;15.30;87.00;;;;;;5001937;28;20143;-80
2023/04/15 08:44:17;;;;;;;0.05;0.05;;;16.10;76.70;;;;;;4998183;28;20061;-79
2023/04/15 08:46:43;;;;;;;0.00;0.00;;;15.90;75.30;;;;;;4990304;28;20478;-78
2023/04/15 08:49:12;;;;;;;0.00;0.00;;;13.90;80.50;;;;;;4997370;28;20128;-77
2023/04/15 08:51:39;;;;;;;0.00;0.00;;;18.50;69.90;;;;;;4987949;28;20057;-78
2023/04/15 08:54:06;;;;;;;0.20;0.20;;;15.00;76.50;;;;;;4997256;28;20033;-78
2023/04/15 08:56:32;;;;;;;0.35;0.35;;;14.60;81.20;;;;;;4996774;28;20041;-82
2023/04/15 08:58:59;;;;;;;0.00;0.00;;;18.90;72.20;;;;;;5002804;28;20096;-80
2023/04/15 09:01:25;;;;;;;0.00;0.00;;;21.60;65.30;;;;;;5002477;28;20038;-78
2023/04/15 09:03:53;;;;;;;0.00;0.00;;;16.40;70.00;;;;;;5001429;28;20124;-76
2023/04/15 09:06:20;;;;;;;0.00;0.00;;;14.80;73.70;;;;;;5000193;28;20026;-76
2023/04/15 09:08:46;;;;;;;0.00;0.00;;;17.10;67.60;;;;;;5001337;28;20557;-77
2023/04/15 09:11:12;;;;;;;0.10;0.10;;;15.50;71.90;;;;;;5001035;28;20106;-77
2023/04/15 09:13:38;;;;;;;0.00;0.00;;;14.00;74.50;;;;;;4999815;28;20030;-76
2023/04/15 09:16:07;;;;;;;0.00;0.00;;;13.50;73.30;;;;;;4999874;28;20030;-75
2023/04/15 09:18:34;;;;;;;0.45;0.45;;;13.60;73.00;;;;;;5001103;28;20257;-76
2023/04/15 09:21:04;;;;;;;0.10;0.10;;;13.30;69.60;;;;;;5001542;28;20028;-76
2023/04/15 09:23:31;;;;;;;0.32;0.32;;;13.90;69.30;;;;;;5000924;28;20013;-77
2023/04/15 09:25:57;;;;;;;0.00;0.00;;;13.60;71.20;;;;;;5000851;28;20029;-79
2023/04/15 09:28:25;;;;;;;0.00;0.00;;;12.80;70.90;;;;;;4999650;28;20443;-79
2023/04/15 09:30:56;;;;;;;0.10;0.10;;;16.30;67.40;;;;;;5001453;28;20052;-79
2023/04/15 09:33:22;;;;;;;6.72;1.27;;;16.60;65.90;;;;;;4998006;28;20022;-77
2023/04/15 09:35:57;;;;;;;0.20;0.20;;;15.70;64.80;;;;;;5001403;28;20476;-77
2023/04/15 09:38:23;;;;;;;0.00;0.00;;;16.00;62.50;;;;;;4999736;28;20552;-79
2023/04/15 09:40:49;;;;;;;0.80;0.53;;;14.80;63.70;;;;;;4996456;28;20034;-80
2023/04/15 09:43:16;;;;;;;0.10;0.10;;;18.60;61.30;;;;;;4995475;28;20445;-79
2023/04/15 09:45:52;;;;;;;0.00;0.00;;;18.40;62.00;;;;;;4996271;28;20045;-79
2023/04/15 09:48:25;;;;;;;0.13;0.13;;;17.60;60.20;;;;;;4996610;28;20508;-79
2023/04/15 09:50:52;;;;;;;0.10;0.10;;;18.20;59.40;;;;;;5001208;28;20056;-79
2023/04/15 09:53:22;;;;;;;0.00;0.00;;;18.70;58.70;;;;;;4992400;28;20543;-78
2023/04/15 09:55:53;;;;;;;0.00;0.00;;;16.60;63.10;;;;;;4999470;28;20037;-79
2023/04/15 09:58:20;;;;;;;0.00;0.00;;;18.50;60.10;;;;;;5004301;28;20556;-81
2023/04/15 10:00:48;;;;;;;1.35;0.32;;;19.20;63.20;;;;;;5005669;28;20033;-78
2023/04/15 10:03:28;;;;;;;1.63;0.95;;;16.60;67.00;;;;;;4998840;28;20861;-81
2023/04/15 10:05:55;;;;;;;0.05;0.05;;;14.40;70.40;;;;;;5001613;28;20030;-78
2023/04/15 10:08:23;;;;;;;0.15;0.15;;;13.80;73.30;;;;;;5004064;28;20061;-84
2023/04/15 10:10:50;;;;;;;0.57;0.40;;;13.20;73.10;;;;;;4999393;28;20037;-82
2023/04/15 10:13:19;;;;;;;0.13;0.13;;;13.00;71.90;;;;;;5003013;28;20088;-79
2023/04/15 10:15:57;;;;;;;0.10;0.10;;;13.50;72.80;;;;;;5003362;28;20105;-82
2023/04/15 10:18:26;;;;;;;0.68;0.68;;;17.30;64.30;;;;;;5001372;28;20033;-79
2023/04/15 10:20:52;;;;;;;0.00;0.00;;;17.50;64.00;;;;;;4998274;28;20100;-79
2023/04/15 10:23:19;;;;;;;0.10;0.10;;;16.00;63.90;;;;;;4997957;28;20125;-83
2023/04/15 10:25:46;;;;;;;0.00;0.00;;;15.20;66.90;;;;;;5002857;28;20034;-83
2023/04/15 10:28:12;;;;;;;;;;;15.60;67.80;;;;;;5008858;28;20030;-79
2023/04/15 10:30:38;;;;;;;0.60;0.60;;;14.60;67.80;;;;;;5007858;28;20016;-80
2023/04/15 10:33:05;;;;;;;0.10;0.10;;;13.60;67.40;;;;;;5005116;28;20049;-80
2023/04/15 10:35:33;;;;;;;0.10;0.10;;;15.30;68.00;;;;;;5002487;28;20026;-80
2023/04/15 10:37:59;;;;;;;0.85;0.85;;;16.00;67.50;;;;;;5000721;28;20189;-81
2023/04/15 10:40:27;;;;;;;0.50;0.50;;;14.90;65.90;;;;;;4994922;28;20042;-82
2023/04/15 10:42:54;;;;;;;0.10;0.10;;;15.20;66.80;;;;;;5001836;28;20101;-80
2023/04/15 10:45:20;;;;;;;0.00;0.00;;;15.30;66.50;;;;;;5000589;28;20026;-83
2023/04/15 10:47:50;;;;;;;0.00;0.00;;;16.20;67.20;;;;;;5003225;28;20029;-80
2023/04/15 10:50:18;;;;;;;0.25;0.25;;;15.20;68.50;;;;;;5002353;28;20063;-82
2023/04/15 10:52:43;;;;;;;0.10;0.10;;;15.00;67.60;;;;;;5001414;28;20137;-85
2023/04/15 10:55:09;;;;;;;0.30;0.30;;;15.00;67.40;;;;;;5003361;28;20025;-81
2023/04/15 10:57:38;;;;;;;0.00;0.00;;;14.90;67.90;;;;;;4994245;28;20065;-82
2023/04/15 11:00:10;;;;;;;0.10;0.10;;;14.90;65.30;;;;;;5000899;28;20053;-81
2023/04/15 11:03:05;;;;;;;0.32;0.32;;;14.90;67.40;;;;;;5001934;28;20018;-82
2023/04/15 11:05:40;;;;;;;0.00;0.00;;;14.80;66.80;;;;;;4988851;28;20026;-83
2023/04/15 11:08:07;;;;;;;0.52;0.52;;;14.90;68.60;;;;;;4999262;28;20022;-82
2023/04/15 11:10:33;;;;;;;;;;;15.10;70.90;;;;;;5002141;28;20517;-83
2023/04/15 11:13:10;;;;;;;0.00;0.00;;;15.50;70.00;;;;;;4997140;28;19914;-83
2023/04/15 11:15:40;;;;;;;0.32;0.32;;;14.80;66.60;;;;;;5001533;28;20085;-81
2023/04/15 11:18:20;;;;;;;0.00;0.00;;;14.30;68.30;;;;;;4996165;28;20030;-84
2023/04/15 11:20:51;;;;;;;0.00;0.00;;;13.90;67.80;;;;;;4995834;28;20728;-82
2023/04/15 11:23:18;;;;;;;0.00;0.00;;;13.90;66.40;;;;;;4998618;28;20080;-82
2023/04/15 11:25:45;;;;;;;0.88;0.82;;;14.20;68.50;;;;;;5001570;28;20841;-81
2023/04/15 11:28:11;;;;;;;1.55;1.45;;;14.50;67.20;;;;;;4997621;28;20398;-85
2023/04/15 11:30:38;;;;;;;0.30;0.30;;;14.50;68.20;;;;;;4992367;28;20033;-83
2023/04/15 11:33:07;;;;;;;0.10;0.10;;;14.60;68.30;;;;;;4993517;28;20045;-81
2023/04/15 11:35:34;;;;;;;0.98;0.52;;;14.90;69.70;;;;;;4995736;28;20478;-83
2023/04/15 11:38:03;;;;;;;;;;;14.40;66.80;;;;;;4999920;28;20033;-82
2023/04/15 11:40:30;;;;;;;1.50;1.40;;;14.30;66.90;;;;;;4989144;28;19926;-82
2023/04/15 11:43:11;;;;;;;0.45;0.45;;;14.70;69.80;;;;;;4995943;28;20030;-82
2023/04/15 11:45:46;;;;;;;3.30;1.27;;;14.60;70.10;;;;;;4997910;28;20041;-83
2023/04/15 11:48:13;;;;;;;0.70;0.20;;;14.90;68.50;;;;;;4995076;28;20022;-81
2023/04/15 11:50:40;;;;;;;0.07;0.07;;;14.30;69.00;;;;;;4997985;28;20046;-81
2023/04/15 11:53:07;;;;;;;0.93;0.68;;;14.10;67.80;;;;;;4990847;28;20030;-80
2023/04/15 11:55:52;;;;;;;0.10;0.10;;;14.20;64.40;;;;;;4990910;28;20042;-77
2023/04/15 11:58:20;;;;;;;1.60;0.83;;;14.10;67.50;;;;;;4998445;28;20057;-76
2023/04/15 12:00:59;;;;;;;0.00;0.00;;;14.20;67.50;;;;;;4994634;28;20798;-77
2023/04/15 12:03:48;;;;;;;0.10;0.10;;;14.20;67.50;;;;;;4994162;28;20037;-76
2023/04/15 12:06:22;;;;;;;0.10;0.10;;;14.20;67.40;;;;;;4992615;28;20639;-77
2023/04/15 12:08:51;;;;;;;0.20;0.20;;;14.30;68.20;;;;;;4997561;28;20084;-78
2023/04/15 12:11:27;;;;;;;0.25;0.25;;;14.20;67.30;;;;;;4994402;28;20048;-77
2023/04/15 12:13:57;;;;;;;0.30;0.30;;;14.20;64.20;;;;;;4982176;28;20057;-80
2023/04/15 12:16:24;;;;;;;0.20;0.20;;;13.90;66.00;;;;;;4997065;28;20056;-79
2023/04/15 12:18:57;;;;;;;0.03;0.03;;;13.70;66.40;;;;;;5000946;28;20991;-80
2023/04/15 12:21:25;;;;;;;0.10;0.10;;;13.70;67.10;;;;;;4992571;28;20034;-79
2023/04/15 12:24:00;;;;;;;0.38;0.38;;;14.00;65.60;;;;;;4996318;28;20038;-82
2023/04/15 12:26:28;;;;;;;0.05;0.05;;;14.10;65.20;;;;;;5003013;28;20029;-81
2023/04/15 12:28:56;;;;;;;0.20;0.20;;;14.30;64.80;;;;;;4998588;28;20022;-82
2023/04/15 12:31:22;;;;;;;0.10;0.10;;;15.00;67.40;;;;;;5004395;28;20052;-83
2023/04/15 12:33:48;;;;;;;0.00;0.00;;;14.90;67.70;;;;;;4993455;28;20034;-82
2023/04/15 12:36:14;;;;;;;0.73;0.40;;;14.60;64.40;;;;;;5000490;28;20066;-79
2023/04/15 12:38:40;;;;;;;0.00;0.00;;;14.20;67.30;;;;;;4998979;28;20679;-81
2023/04/15 12:41:06;;;;;;;0.10;0.10;;;14.10;67.20;;;;;;5000428;28;20659;-80
2023/04/15 12:43:31;;;;;;;0.63;0.47;;;13.80;66.20;;;;;;4995473;28;20045;-79
2023/04/15 12:45:57;;;;;;;4.20;0.67;;;14.00;66.80;;;;;;5000094;28;20030;-82
2023/04/15 12:48:23;;;;;;;0.00;0.00;;;14.40;67.80;;;;;;5001345;28;20036;-83
2023/04/15 12:50:49;;;;;;;0.10;0.10;;;14.30;67.40;;;;;;4998096;28;20589;-81